sensor_id;sensor_type;location;lat;lon;timestamp;pressure;altitude;pressure_sealevel;temperature;humidity
30110;BME280;14965;50.660;13.226;2023-01-09T00:00:21;93430.69;;;3.92;90.07
30110;BME280;14965;50.660;13.226;2023-01-09T00:02:47;93428.19;;;3.85;90.50
30110;BME280;14965;50.660;13.226;2023-01-09T00:05:16;93420.06;;;3.82;90.89
30110;BME280;14965;50.660;13.226;2023-01-09T00:07:42;93408.13;;;3.75;90.93
30110;BME280;14965;50.660;13.226;2023-01-09T00:10:10;93403.63;;;3.69;90.81
30110;BME280;14965;50.660;13.226;2023-01-09T00:12:36;93396.88;;;3.73;91.05
30110;BME280;14965;50.660;13.226;2023-01-09T00:15:04;93381.72;;;3.72;90.79
30110;BME280;14965;50.660;13.226;2023-01-09T00:17:31;93392.09;;;3.78;90.86
30110;BME280;14965;50.660;13.226;2023-01-09T00:19:57;93373.31;;;3.80;90.25
30110;BME280;14965;50.660;13.226;2023-01-09T00:22:23;93369.28;;;3.84;90.33
30110;BME280;14965;50.660;13.226;2023-01-09T00:24:49;93373.88;;;3.87;90.10
30110;BME280;14965;50.660;13.226;2023-01-09T00:27:15;93362.88;;;3.91;89.77
30110;BME280;14965;50.660;13.226;2023-01-09T00:29:41;93364.41;;;3.92;89.78
30110;BME280;14965;50.660;13.226;2023-01-09T00:32:07;93359.69;;;3.92;90.08
30110;BME280;14965;50.660;13.226;2023-01-09T00:34:35;93371.28;;;3.96;89.97
30110;BME280;14965;50.660;13.226;2023-01-09T00:37:02;93367.47;;;3.94;89.87
30110;BME280;14965;50.660;13.226;2023-01-09T00:39:28;93363.84;;;3.97;89.96
30110;BME280;14965;50.660;13.226;2023-01-09T00:41:55;93351.75;;;3.98;89.30
30110;BME280;14965;50.660;13.226;2023-01-09T00:44:26;93363.25;;;4.06;89.57
30110;BME280;14965;50.660;13.226;2023-01-09T00:46:59;93359.22;;;4.10;88.82
30110;BME280;14965;50.660;13.226;2023-01-09T00:49:28;93350.13;;;4.13;88.98
30110;BME280;14965;50.660;13.226;2023-01-09T00:51:57;93364.13;;;4.15;88.49
30110;BME280;14965;50.660;13.226;2023-01-09T00:54:23;93360.41;;;4.22;88.76
30110;BME280;14965;50.660;13.226;2023-01-09T00:56:49;93353.00;;;4.22;88.49
30110;BME280;14965;50.660;13.226;2023-01-09T00:59:15;93357.81;;;4.18;88.83
30110;BME280;14965;50.660;13.226;2023-01-09T01:01:41;93349.63;;;4.18;89.10
30110;BME280;14965;50.660;13.226;2023-01-09T01:04:07;93352.88;;;4.13;89.24
30110;BME280;14965;50.660;13.226;2023-01-09T01:06:33;93347.84;;;4.12;89.31
30110;BME280;14965;50.660;13.226;2023-01-09T01:09:00;93340.50;;;4.09;89.23
30110;BME280;14965;50.660;13.226;2023-01-09T01:11:26;93338.22;;;4.07;89.37
30110;BME280;14965;50.660;13.226;2023-01-09T01:13:52;93340.28;;;4.03;89.27
30110;BME280;14965;50.660;13.226;2023-01-09T01:16:18;93336.13;;;3.98;89.48
30110;BME280;14965;50.660;13.226;2023-01-09T01:18:44;93328.47;;;3.93;89.69
30110;BME280;14965;50.660;13.226;2023-01-09T01:21:13;93334.34;;;3.92;90.09
30110;BME280;14965;50.660;13.226;2023-01-09T01:23:39;93340.34;;;3.87;90.40
30110;BME280;14965;50.660;13.226;2023-01-09T01:26:10;93333.91;;;3.81;90.81
30110;BME280;14965;50.660;13.226;2023-01-09T01:28:37;93335.97;;;3.77;91.33
30110;BME280;14965;50.660;13.226;2023-01-09T01:31:04;93326.00;;;3.70;92.55
30110;BME280;14965;50.660;13.226;2023-01-09T01:33:30;93333.59;;;3.62;93.24
30110;BME280;14965;50.660;13.226;2023-01-09T01:36:00;93322.19;;;3.51;94.79
30110;BME280;14965;50.660;13.226;2023-01-09T01:38:27;93318.28;;;3.52;95.22
30110;BME280;14965;50.660;13.226;2023-01-09T01:40:53;93323.84;;;3.48;95.11
30110;BME280;14965;50.660;13.226;2023-01-09T01:43:21;93310.53;;;3.50;95.39
30110;BME280;14965;50.660;13.226;2023-01-09T01:45:47;93309.44;;;3.48;95.46
30110;BME280;14965;50.660;13.226;2023-01-09T01:48:17;93307.91;;;3.47;95.32
30110;BME280;14965;50.660;13.226;2023-01-09T01:50:47;93302.44;;;3.47;95.66
30110;BME280;14965;50.660;13.226;2023-01-09T01:53:20;93294.25;;;3.47;95.25
30110;BME280;14965;50.660;13.226;2023-01-09T01:56:01;93282.56;;;3.46;95.28
30110;BME280;14965;50.660;13.226;2023-01-09T01:58:30;93284.44;;;3.49;95.11
30110;BME280;14965;50.660;13.226;2023-01-09T02:00:58;93274.28;;;3.50;95.53
30110;BME280;14965;50.660;13.226;2023-01-09T02:03:27;93264.88;;;3.51;95.32
30110;BME280;14965;50.660;13.226;2023-01-09T02:05:53;93269.16;;;3.52;95.71
30110;BME280;14965;50.660;13.226;2023-01-09T02:08:20;93270.03;;;3.49;95.42
30110;BME280;14965;50.660;13.226;2023-01-09T02:10:48;93262.28;;;3.47;95.65
30110;BME280;14965;50.660;13.226;2023-01-09T02:13:16;93261.50;;;3.47;95.44
30110;BME280;14965;50.660;13.226;2023-01-09T02:15:58;93259.53;;;3.47;95.52
30110;BME280;14965;50.660;13.226;2023-01-09T02:18:44;93249.03;;;3.46;95.34
30110;BME280;14965;50.660;13.226;2023-01-09T02:21:23;93247.44;;;3.48;95.59
30110;BME280;14965;50.660;13.226;2023-01-09T02:24:26;93246.22;;;3.49;95.38
30110;BME280;14965;50.660;13.226;2023-01-09T02:27:33;93239.13;;;3.52;95.31
30110;BME280;14965;50.660;13.226;2023-01-09T02:30:24;93229.41;;;3.51;95.10
30110;BME280;14965;50.660;13.226;2023-01-09T02:33:05;93222.78;;;3.52;95.09
30110;BME280;14965;50.660;13.226;2023-01-09T02:35:56;93225.81;;;3.54;94.89
30110;BME280;14965;50.660;13.226;2023-01-09T02:38:33;93225.81;;;3.54;94.80
30110;BME280;14965;50.660;13.226;2023-01-09T02:41:07;93216.75;;;3.57;95.04
30110;BME280;14965;50.660;13.226;2023-01-09T02:43:35;93224.97;;;3.57;94.58
30110;BME280;14965;50.660;13.226;2023-01-09T02:46:05;93220.25;;;3.58;94.89
30110;BME280;14965;50.660;13.226;2023-01-09T02:48:31;93217.53;;;3.58;95.03
30110;BME280;14965;50.660;13.226;2023-01-09T02:51:10;93217.53;;;3.58;95.36
30110;BME280;14965;50.660;13.226;2023-01-09T02:54:12;93213.59;;;3.59;95.06
30110;BME280;14965;50.660;13.226;2023-01-09T02:57:01;93197.97;;;3.59;95.03
30110;BME280;14965;50.660;13.226;2023-01-09T02:59:38;93184.31;;;3.59;95.35
30110;BME280;14965;50.660;13.226;2023-01-09T03:02:31;93198.41;;;3.58;94.71
30110;BME280;14965;50.660;13.226;2023-01-09T03:05:10;93185.88;;;3.60;94.79
30110;BME280;14965;50.660;13.226;2023-01-09T03:07:44;93183.91;;;3.61;94.79
30110;BME280;14965;50.660;13.226;2023-01-09T03:10:19;93178.88;;;3.59;94.95
30110;BME280;14965;50.660;13.226;2023-01-09T03:12:50;93166.44;;;3.58;94.59
30110;BME280;14965;50.660;13.226;2023-01-09T03:15:19;93167.94;;;3.59;94.60
30110;BME280;14965;50.660;13.226;2023-01-09T03:17:49;93160.09;;;3.61;94.77
30110;BME280;14965;50.660;13.226;2023-01-09T03:20:21;93154.66;;;3.61;94.41
30110;BME280;14965;50.660;13.226;2023-01-09T03:22:54;93156.16;;;3.62;94.05
30110;BME280;14965;50.660;13.226;2023-01-09T03:25:21;93152.38;;;3.60;94.05
30110;BME280;14965;50.660;13.226;2023-01-09T03:27:48;93153.13;;;3.60;93.77
30110;BME280;14965;50.660;13.226;2023-01-09T03:30:17;93156.28;;;3.59;93.84
30110;BME280;14965;50.660;13.226;2023-01-09T03:32:43;93150.50;;;3.57;93.84
30110;BME280;14965;50.660;13.226;2023-01-09T03:35:10;93140.00;;;3.55;93.27
30110;BME280;14965;50.660;13.226;2023-01-09T03:37:36;93138.16;;;3.52;93.62
30110;BME280;14965;50.660;13.226;2023-01-09T03:40:03;93127.56;;;3.54;93.43
30110;BME280;14965;50.660;13.226;2023-01-09T03:42:29;93122.97;;;3.51;93.21
30110;BME280;14965;50.660;13.226;2023-01-09T03:44:54;93120.78;;;3.46;92.68
30110;BME280;14965;50.660;13.226;2023-01-09T03:47:20;93120.13;;;3.42;93.36
30110;BME280;14965;50.660;13.226;2023-01-09T03:49:46;93116.41;;;3.36;92.90
30110;BME280;14965;50.660;13.226;2023-01-09T03:52:13;93119.56;;;3.34;93.56
30110;BME280;14965;50.660;13.226;2023-01-09T03:54:39;93120.44;;;3.31;93.34
30110;BME280;14965;50.660;13.226;2023-01-09T03:57:05;93122.75;;;3.33;93.86
30110;BME280;14965;50.660;13.226;2023-01-09T03:59:31;93132.88;;;3.32;93.57
30110;BME280;14965;50.660;13.226;2023-01-09T04:01:57;93120.88;;;3.30;94.08
30110;BME280;14965;50.660;13.226;2023-01-09T04:04:23;93119.69;;;3.31;93.83
30110;BME280;14965;50.660;13.226;2023-01-09T04:06:49;93123.19;;;3.31;93.90
30110;BME280;14965;50.660;13.226;2023-01-09T04:09:16;93120.88;;;3.30;93.89
30110;BME280;14965;50.660;13.226;2023-01-09T04:11:42;93125.91;;;3.31;94.06
30110;BME280;14965;50.660;13.226;2023-01-09T04:14:08;93129.06;;;3.30;93.66
30110;BME280;14965;50.660;13.226;2023-01-09T04:16:34;93137.03;;;3.24;93.88
30110;BME280;14965;50.660;13.226;2023-01-09T04:19:00;93142.47;;;3.24;94.42
30110;BME280;14965;50.660;13.226;2023-01-09T04:21:25;93143.25;;;3.24;94.16
30110;BME280;14965;50.660;13.226;2023-01-09T04:23:51;93139.31;;;3.25;94.33
30110;BME280;14965;50.660;13.226;2023-01-09T04:26:19;93137.78;;;3.24;94.43
30110;BME280;14965;50.660;13.226;2023-01-09T04:28:44;93140.84;;;3.27;94.02
30110;BME280;14965;50.660;13.226;2023-01-09T04:31:10;93144.44;;;3.23;93.88
30110;BME280;14965;50.660;13.226;2023-01-09T04:33:36;93138.31;;;3.19;94.22
30110;BME280;14965;50.660;13.226;2023-01-09T04:36:02;93135.59;;;3.19;93.94
30110;BME280;14965;50.660;13.226;2023-01-09T04:38:29;93133.63;;;3.20;94.32
30110;BME280;14965;50.660;13.226;2023-01-09T04:40:54;93133.63;;;3.20;94.49
30110;BME280;14965;50.660;13.226;2023-01-09T04:43:21;93135.69;;;3.16;94.17
30110;BME280;14965;50.660;13.226;2023-01-09T04:45:47;93135.25;;;3.17;94.16
30110;BME280;14965;50.660;13.226;2023-01-09T04:48:13;93131.34;;;3.18;94.25
30110;BME280;14965;50.660;13.226;2023-01-09T04:50:39;93134.72;;;3.10;93.94
30110;BME280;14965;50.660;13.226;2023-01-09T04:53:05;93133.91;;;3.09;94.42
30110;BME280;14965;50.660;13.226;2023-01-09T04:55:31;93139.06;;;3.07;94.13
30110;BME280;14965;50.660;13.226;2023-01-09T04:57:58;93145.38;;;3.04;94.34
30110;BME280;14965;50.660;13.226;2023-01-09T05:00:25;93143.84;;;3.03;94.35
30110;BME280;14965;50.660;13.226;2023-01-09T05:02:51;93146.25;;;3.01;94.20
30110;BME280;14965;50.660;13.226;2023-01-09T05:05:17;93148.97;;;3.01;94.14
30110;BME280;14965;50.660;13.226;2023-01-09T05:07:43;93141.22;;;2.99;94.01
30110;BME280;14965;50.660;13.226;2023-01-09T05:10:10;93149.16;;;2.94;94.01
30110;BME280;14965;50.660;13.226;2023-01-09T05:12:36;93154.03;;;2.86;94.08
30110;BME280;14965;50.660;13.226;2023-01-09T05:15:03;93142.38;;;2.86;94.62
30110;BME280;14965;50.660;13.226;2023-01-09T05:17:31;93144.63;;;2.74;95.20
30110;BME280;14965;50.660;13.226;2023-01-09T05:19:57;93138.41;;;2.74;95.11
30110;BME280;14965;50.660;13.226;2023-01-09T05:22:23;93137.97;;;2.75;94.77
30110;BME280;14965;50.660;13.226;2023-01-09T05:24:48;93122.06;;;2.74;95.42
30110;BME280;14965;50.660;13.226;2023-01-09T05:27:14;93122.91;;;2.71;95.26
30110;BME280;14965;50.660;13.226;2023-01-09T05:29:40;93127.59;;;2.70;95.10
30110;BME280;14965;50.660;13.226;2023-01-09T05:32:06;93134.56;;;2.71;95.54
30110;BME280;14965;50.660;13.226;2023-01-09T05:34:33;93135.09;;;2.66;95.90
30110;BME280;14965;50.660;13.226;2023-01-09T05:36:59;93140.22;;;2.64;95.71
30110;BME280;14965;50.660;13.226;2023-01-09T05:39:25;93150.69;;;2.66;96.16
30110;BME280;14965;50.660;13.226;2023-01-09T05:41:51;93154.19;;;2.66;95.57
30110;BME280;14965;50.660;13.226;2023-01-09T05:44:17;93140.03;;;2.71;96.11
30110;BME280;14965;50.660;13.226;2023-01-09T05:46:43;93145.06;;;2.73;95.71
30110;BME280;14965;50.660;13.226;2023-01-09T05:49:08;93143.53;;;2.72;96.10
30110;BME280;14965;50.660;13.226;2023-01-09T05:51:36;93135.69;;;2.74;95.77
30110;BME280;14965;50.660;13.226;2023-01-09T05:54:02;93146.13;;;2.75;95.67
30110;BME280;14965;50.660;13.226;2023-01-09T05:56:27;93137.56;;;2.77;95.55
30110;BME280;14965;50.660;13.226;2023-01-09T05:58:53;93133.72;;;2.74;96.11
30110;BME280;14965;50.660;13.226;2023-01-09T06:01:19;93122.91;;;2.71;95.81
30110;BME280;14965;50.660;13.226;2023-01-09T06:03:45;93123.25;;;2.73;95.75
30110;BME280;14965;50.660;13.226;2023-01-09T06:06:11;93109.19;;;2.74;96.33
30110;BME280;14965;50.660;13.226;2023-01-09T06:08:38;93111.06;;;2.78;95.91
30110;BME280;14965;50.660;13.226;2023-01-09T06:11:04;93108.66;;;2.80;95.57
30110;BME280;14965;50.660;13.226;2023-01-09T06:13:30;93112.38;;;2.86;96.14
30110;BME280;14965;50.660;13.226;2023-01-09T06:15:56;93118.06;;;2.91;95.57
30110;BME280;14965;50.660;13.226;2023-01-09T06:18:22;93125.94;;;2.89;95.59
30110;BME280;14965;50.660;13.226;2023-01-09T06:20:47;93130.09;;;2.94;95.84
30110;BME280;14965;50.660;13.226;2023-01-09T06:23:13;93133.78;;;3.00;95.42
30110;BME280;14965;50.660;13.226;2023-01-09T06:25:41;93137.53;;;3.06;95.65
30110;BME280;14965;50.660;13.226;2023-01-09T06:28:07;93142.00;;;3.13;95.86
30110;BME280;14965;50.660;13.226;2023-01-09T06:30:33;93142.66;;;3.17;95.83
30110;BME280;14965;50.660;13.226;2023-01-09T06:32:59;93149.56;;;3.21;95.17
30110;BME280;14965;50.660;13.226;2023-01-09T06:35:25;93154.16;;;3.24;95.45
30110;BME280;14965;50.660;13.226;2023-01-09T06:37:50;93151.22;;;3.32;95.43
30110;BME280;14965;50.660;13.226;2023-01-09T06:40:17;93163.88;;;3.38;95.34
30110;BME280;14965;50.660;13.226;2023-01-09T06:42:46;93147.75;;;3.44;95.18
30110;BME280;14965;50.660;13.226;2023-01-09T06:45:13;93154.94;;;3.50;94.58
30110;BME280;14965;50.660;13.226;2023-01-09T06:47:39;93161.97;;;3.52;94.55
30110;BME280;14965;50.660;13.226;2023-01-09T06:50:05;93154.84;;;3.54;94.55
30110;BME280;14965;50.660;13.226;2023-01-09T06:52:32;93151.56;;;3.59;94.44
30110;BME280;14965;50.660;13.226;2023-01-09T06:54:57;93158.47;;;3.64;94.49
30110;BME280;14965;50.660;13.226;2023-01-09T06:57:23;93151.81;;;3.65;94.16
30110;BME280;14965;50.660;13.226;2023-01-09T06:59:50;93154.44;;;3.68;94.13
30110;BME280;14965;50.660;13.226;2023-01-09T07:02:19;93152.38;;;3.72;94.01
30110;BME280;14965;50.660;13.226;2023-01-09T07:04:45;93162.09;;;3.73;93.95
30110;BME280;14965;50.660;13.226;2023-01-09T07:07:12;93154.97;;;3.76;93.77
30110;BME280;14965;50.660;13.226;2023-01-09T07:09:39;93150.28;;;3.77;93.83
30110;BME280;14965;50.660;13.226;2023-01-09T07:12:05;93156.06;;;3.79;93.65
30110;BME280;14965;50.660;13.226;2023-01-09T07:14:31;93154.09;;;3.79;93.76
30110;BME280;14965;50.660;13.226;2023-01-09T07:16:59;93168.84;;;3.82;93.92
30110;BME280;14965;50.660;13.226;2023-01-09T07:19:24;93165.25;;;3.85;93.97
30110;BME280;14965;50.660;13.226;2023-01-09T07:21:50;93167.09;;;3.88;94.09
30110;BME280;14965;50.660;13.226;2023-01-09T07:24:16;93167.44;;;3.90;94.08
30110;BME280;14965;50.660;13.226;2023-01-09T07:26:42;93165.38;;;3.94;93.95
30110;BME280;14965;50.660;13.226;2023-01-09T07:29:08;93173.88;;;3.96;93.81
30110;BME280;14965;50.660;13.226;2023-01-09T07:31:33;93169.50;;;3.98;94.31
30110;BME280;14965;50.660;13.226;2023-01-09T07:34:01;93169.41;;;4.02;94.08
30110;BME280;14965;50.660;13.226;2023-01-09T07:36:26;93173.66;;;4.03;94.03
30110;BME280;14965;50.660;13.226;2023-01-09T07:38:52;93178.25;;;4.06;93.85
30110;BME280;14965;50.660;13.226;2023-01-09T07:41:18;93185.56;;;4.09;94.01
30110;BME280;14965;50.660;13.226;2023-01-09T07:43:44;93194.53;;;4.10;93.76
30110;BME280;14965;50.660;13.226;2023-01-09T07:46:10;93206.09;;;4.14;93.80
30110;BME280;14965;50.660;13.226;2023-01-09T07:48:35;93202.94;;;4.15;93.64
30110;BME280;14965;50.660;13.226;2023-01-09T07:51:03;93198.69;;;4.14;93.85
30110;BME280;14965;50.660;13.226;2023-01-09T07:53:28;93204.56;;;4.13;93.71
30110;BME280;14965;50.660;13.226;2023-01-09T07:55:54;93198.78;;;4.11;93.91
30110;BME280;14965;50.660;13.226;2023-01-09T07:58:20;93207.19;;;4.16;93.99
30110;BME280;14965;50.660;13.226;2023-01-09T08:00:46;93204.00;;;4.18;93.77
30110;BME280;14965;50.660;13.226;2023-01-09T08:03:12;93211.44;;;4.17;93.95
30110;BME280;14965;50.660;13.226;2023-01-09T08:05:38;93209.06;;;4.19;94.01
30110;BME280;14965;50.660;13.226;2023-01-09T08:08:05;93211.03;;;4.19;93.98
30110;BME280;14965;50.660;13.226;2023-01-09T08:10:31;93223.78;;;4.22;94.31
30110;BME280;14965;50.660;13.226;2023-01-09T08:12:57;93215.28;;;4.20;94.48
30110;BME280;14965;50.660;13.226;2023-01-09T08:15:23;93216.69;;;4.24;94.59
30110;BME280;14965;50.660;13.226;2023-01-09T08:17:48;93229.59;;;4.24;94.87
30110;BME280;14965;50.660;13.226;2023-01-09T08:20:16;93230.56;;;4.30;94.90
30110;BME280;14965;50.660;13.226;2023-01-09T08:22:44;93230.81;;;4.36;94.58
30110;BME280;14965;50.660;13.226;2023-01-09T08:25:11;93230.03;;;4.35;94.80
30110;BME280;14965;50.660;13.226;2023-01-09T08:27:37;93235.16;;;4.33;95.14
30110;BME280;14965;50.660;13.226;2023-01-09T08:30:04;93241.75;;;4.36;95.40
30110;BME280;14965;50.660;13.226;2023-01-09T08:32:30;93237.34;;;4.38;94.94
30110;BME280;14965;50.660;13.226;2023-01-09T08:34:56;93248.94;;;4.42;95.18
30110;BME280;14965;50.660;13.226;2023-01-09T08:37:22;93247.84;;;4.40;95.24
30110;BME280;14965;50.660;13.226;2023-01-09T08:39:48;93238.09;;;4.39;95.44
30110;BME280;14965;50.660;13.226;2023-01-09T08:42:15;93250.91;;;4.42;95.03
30110;BME280;14965;50.660;13.226;2023-01-09T08:44:41;93262.72;;;4.39;95.36
30110;BME280;14965;50.660;13.226;2023-01-09T08:47:07;93268.81;;;4.43;95.47
30110;BME280;14965;50.660;13.226;2023-01-09T08:49:34;93272.47;;;4.40;96.14
30110;BME280;14965;50.660;13.226;2023-01-09T08:52:03;93276.59;;;4.44;96.03
30110;BME280;14965;50.660;13.226;2023-01-09T08:54:29;93275.50;;;4.42;96.40
30110;BME280;14965;50.660;13.226;2023-01-09T08:56:57;93275.84;;;4.44;97.42
30110;BME280;14965;50.660;13.226;2023-01-09T08:59:24;93272.34;;;4.43;97.12
30110;BME280;14965;50.660;13.226;2023-01-09T09:01:50;93269.38;;;4.38;98.35
30110;BME280;14965;50.660;13.226;2023-01-09T09:04:16;93268.50;;;4.41;98.28
30110;BME280;14965;50.660;13.226;2023-01-09T09:06:42;93273.13;;;4.44;98.57
30110;BME280;14965;50.660;13.226;2023-01-09T09:09:08;93267.09;;;4.36;99.03
30110;BME280;14965;50.660;13.226;2023-01-09T09:11:34;93265.44;;;4.39;99.38
30110;BME280;14965;50.660;13.226;2023-01-09T09:14:00;93268.81;;;4.43;99.03
30110;BME280;14965;50.660;13.226;2023-01-09T09:16:28;93273.44;;;4.46;99.21
30110;BME280;14965;50.660;13.226;2023-01-09T09:18:53;93265.00;;;4.53;99.11
30110;BME280;14965;50.660;13.226;2023-01-09T09:21:19;93270.69;;;4.59;98.73
30110;BME280;14965;50.660;13.226;2023-01-09T09:23:45;93275.47;;;4.67;98.67
30110;BME280;14965;50.660;13.226;2023-01-09T09:26:12;93286.75;;;4.69;98.00
30110;BME280;14965;50.660;13.226;2023-01-09T09:28:37;93289.69;;;4.75;97.76
30110;BME280;14965;50.660;13.226;2023-01-09T09:31:04;93286.84;;;4.79;97.41
30110;BME280;14965;50.660;13.226;2023-01-09T09:33:31;93292.97;;;4.83;97.05
30110;BME280;14965;50.660;13.226;2023-01-09T09:35:57;93295.50;;;4.90;96.86
30110;BME280;14965;50.660;13.226;2023-01-09T09:38:23;93300.41;;;4.95;96.54
30110;BME280;14965;50.660;13.226;2023-01-09T09:41:18;93301.06;;;4.99;96.37
30110;BME280;14965;50.660;13.226;2023-01-09T09:44:07;93305.53;;;4.93;96.17
30110;BME280;14965;50.660;13.226;2023-01-09T09:46:42;93299.19;;;4.96;95.53
30110;BME280;14965;50.660;13.226;2023-01-09T09:49:19;93303.34;;;5.00;95.62
30110;BME280;14965;50.660;13.226;2023-01-09T09:52:01;93311.13;;;5.02;95.55
30110;BME280;14965;50.660;13.226;2023-01-09T09:54:33;93316.34;;;5.09;95.00
30110;BME280;14965;50.660;13.226;2023-01-09T09:57:02;93322.47;;;5.13;95.09
30110;BME280;14965;50.660;13.226;2023-01-09T09:59:33;93314.91;;;5.17;94.59
30110;BME280;14965;50.660;13.226;2023-01-09T10:02:15;93321.69;;;5.13;94.01
30110;BME280;14965;50.660;13.226;2023-01-09T10:04:58;93320.06;;;5.15;93.94
30110;BME280;14965;50.660;13.226;2023-01-09T10:07:30;93325.41;;;5.19;94.29
30110;BME280;14965;50.660;13.226;2023-01-09T10:10:00;93318.75;;;5.20;93.49
30110;BME280;14965;50.660;13.226;2023-01-09T10:12:30;93321.47;;;5.20;93.10
30110;BME280;14965;50.660;13.226;2023-01-09T10:15:05;93324.97;;;5.20;93.40
30110;BME280;14965;50.660;13.226;2023-01-09T10:17:50;93321.03;;;5.21;94.72
30110;BME280;14965;50.660;13.226;2023-01-09T10:20:56;93328.25;;;5.28;93.91
30110;BME280;14965;50.660;13.226;2023-01-09T10:23:40;93325.91;;;5.39;94.11
30110;BME280;14965;50.660;13.226;2023-01-09T10:26:15;93325.22;;;5.48;92.62
30110;BME280;14965;50.660;13.226;2023-01-09T10:29:07;93324.44;;;5.47;90.94
30110;BME280;14965;50.660;13.226;2023-01-09T10:31:47;93327.88;;;5.39;90.34
30110;BME280;14965;50.660;13.226;2023-01-09T10:34:33;93330.75;;;5.35;90.61
30110;BME280;14965;50.660;13.226;2023-01-09T10:37:10;93335.25;;;5.29;89.74
30110;BME280;14965;50.660;13.226;2023-01-09T10:39:45;93333.16;;;5.33;89.32
30110;BME280;14965;50.660;13.226;2023-01-09T10:42:19;93347.03;;;5.39;89.44
30110;BME280;14965;50.660;13.226;2023-01-09T10:44:54;93341.25;;;5.37;89.63
30110;BME280;14965;50.660;13.226;2023-01-09T10:47:27;93343.31;;;5.45;89.89
30110;BME280;14965;50.660;13.226;2023-01-09T10:49:55;93337.81;;;5.45;89.23
30110;BME280;14965;50.660;13.226;2023-01-09T10:52:32;93353.81;;;5.47;88.49
30110;BME280;14965;50.660;13.226;2023-01-09T10:55:11;93352.19;;;5.37;87.32
30110;BME280;14965;50.660;13.226;2023-01-09T10:57:42;93357.34;;;5.35;87.09
30110;BME280;14965;50.660;13.226;2023-01-09T11:00:17;93366.19;;;5.39;87.66
30110;BME280;14965;50.660;13.226;2023-01-09T11:02:44;93358.53;;;5.34;86.65
30110;BME280;14965;50.660;13.226;2023-01-09T11:05:15;93384.84;;;5.31;87.63
30110;BME280;14965;50.660;13.226;2023-01-09T11:07:48;93386.41;;;5.19;89.54
30110;BME280;14965;50.660;13.226;2023-01-09T11:10:16;93386.72;;;4.83;90.75
30110;BME280;14965;50.660;13.226;2023-01-09T11:12:42;93386.72;;;4.58;92.97
30110;BME280;14965;50.660;13.226;2023-01-09T11:15:24;93389.75;;;4.47;94.73
30110;BME280;14965;50.660;13.226;2023-01-09T11:17:51;93380.13;;;4.42;96.79
30110;BME280;14965;50.660;13.226;2023-01-09T11:20:23;93371.84;;;4.46;97.22
30110;BME280;14965;50.660;13.226;2023-01-09T11:22:53;93371.53;;;4.57;98.46
30110;BME280;14965;50.660;13.226;2023-01-09T11:25:21;93371.53;;;4.69;99.07
30110;BME280;14965;50.660;13.226;2023-01-09T11:28:04;93368.91;;;4.79;99.14
30110;BME280;14965;50.660;13.226;2023-01-09T11:30:31;93370.78;;;4.82;99.30
30110;BME280;14965;50.660;13.226;2023-01-09T11:32:59;93370.44;;;4.80;98.83
30110;BME280;14965;50.660;13.226;2023-01-09T11:35:28;93378.75;;;4.76;99.61
30110;BME280;14965;50.660;13.226;2023-01-09T11:38:11;93385.75;;;4.64;98.28
30110;BME280;14965;50.660;13.226;2023-01-09T11:40:48;93368.34;;;4.58;97.88
30110;BME280;14965;50.660;13.226;2023-01-09T11:43:20;93375.03;;;4.57;96.63
30110;BME280;14965;50.660;13.226;2023-01-09T11:45:50;93388.81;;;4.66;97.67
30110;BME280;14965;50.660;13.226;2023-01-09T11:48:32;93385.88;;;4.73;97.06
30110;BME280;14965;50.660;13.226;2023-01-09T11:51:02;93382.03;;;4.84;97.23
30110;BME280;14965;50.660;13.226;2023-01-09T11:53:53;93377.22;;;4.88;96.18
30110;BME280;14965;50.660;13.226;2023-01-09T11:56:21;93385.88;;;4.99;96.00
30110;BME280;14965;50.660;13.226;2023-01-09T11:58:47;93383.44;;;5.01;94.38
30110;BME280;14965;50.660;13.226;2023-01-09T12:01:34;93392.53;;;4.98;92.77
30110;BME280;14965;50.660;13.226;2023-01-09T12:04:20;93390.56;;;4.86;91.36
30110;BME280;14965;50.660;13.226;2023-01-09T12:07:05;93390.03;;;4.91;92.52
30110;BME280;14965;50.660;13.226;2023-01-09T12:09:45;93405.56;;;4.94;92.47
30110;BME280;14965;50.660;13.226;2023-01-09T12:12:23;93408.72;;;4.92;92.84
30110;BME280;14965;50.660;13.226;2023-01-09T12:15:04;93405.88;;;4.83;92.56
30110;BME280;14965;50.660;13.226;2023-01-09T12:18:06;93395.16;;;4.76;92.62
30110;BME280;14965;50.660;13.226;2023-01-09T12:20:54;93409.38;;;4.84;92.96
30110;BME280;14965;50.660;13.226;2023-01-09T12:23:42;93422.41;;;4.80;92.57
30110;BME280;14965;50.660;13.226;2023-01-09T12:26:20;93422.50;;;4.76;92.58
30110;BME280;14965;50.660;13.226;2023-01-09T12:29:17;93418.34;;;4.71;91.73
30110;BME280;14965;50.660;13.226;2023-01-09T12:32:14;93424.81;;;4.65;91.21
30110;BME280;14965;50.660;13.226;2023-01-09T12:34:57;93427.44;;;4.68;91.01
30110;BME280;14965;50.660;13.226;2023-01-09T12:37:55;93429.19;;;4.75;90.87
30110;BME280;14965;50.660;13.226;2023-01-09T12:40:52;93425.34;;;4.72;88.94
30110;BME280;14965;50.660;13.226;2023-01-09T12:43:32;93422.41;;;4.80;89.62
30110;BME280;14965;50.660;13.226;2023-01-09T12:46:14;93433.13;;;4.87;88.81
30110;BME280;14965;50.660;13.226;2023-01-09T12:49:00;93434.09;;;4.93;88.77
30110;BME280;14965;50.660;13.226;2023-01-09T12:51:32;93431.81;;;4.91;88.30
30110;BME280;14965;50.660;13.226;2023-01-09T12:54:07;93439.56;;;4.80;87.83
30110;BME280;14965;50.660;13.226;2023-01-09T12:56:39;93443.06;;;4.81;88.13
30110;BME280;14965;50.660;13.226;2023-01-09T12:59:22;93440.78;;;4.79;88.53
30110;BME280;14965;50.660;13.226;2023-01-09T13:01:51;93436.06;;;4.80;88.93
30110;BME280;14965;50.660;13.226;2023-01-09T13:04:23;93438.13;;;4.75;89.16
30110;BME280;14965;50.660;13.226;2023-01-09T13:06:56;93442.63;;;4.69;88.66
30110;BME280;14965;50.660;13.226;2023-01-09T13:09:26;93441.88;;;4.69;89.08
30110;BME280;14965;50.660;13.226;2023-01-09T13:12:03;93447.75;;;4.67;89.23
30110;BME280;14965;50.660;13.226;2023-01-09T13:14:50;93453.66;;;4.66;89.08
30110;BME280;14965;50.660;13.226;2023-01-09T13:17:25;93455.84;;;4.71;89.23